createdAt,value
2022-10-12T00:00:49.848Z,102244.19
2022-10-12T00:03:17.989Z,102248.63
2022-10-12T00:05:45.986Z,102245.06
2022-10-12T00:08:14.025Z,102241.34
2022-10-12T00:10:44.020Z,102240.50
2022-10-12T00:13:12.488Z,102244.81
2022-10-12T00:15:41.576Z,102248.34
2022-10-12T00:18:09.785Z,102250.09
2022-10-12T00:20:37.840Z,102245.78
2022-10-12T00:23:06.124Z,102245.75
2022-10-12T00:25:37.482Z,102243.06
2022-10-12T00:28:07.412Z,102242.13
2022-10-12T00:30:36.046Z,102234.16
2022-10-12T00:33:04.031Z,102241.28
2022-10-12T00:35:31.949Z,102233.28
2022-10-12T00:37:59.969Z,102231.50
2022-10-12T00:40:27.971Z,102237.63
2022-10-12T00:42:55.938Z,102235.91
2022-10-12T00:45:27.070Z,102236.84
2022-10-12T00:47:57.855Z,102246.69
2022-10-12T00:50:28.597Z,102243.25
2022-10-12T00:53:02.455Z,102243.38
2022-10-12T00:55:35.677Z,102237.28
2022-10-12T00:58:05.644Z,102238.25
2022-10-12T01:00:35.988Z,102241.00
2022-10-12T01:03:04.373Z,102241.91
2022-10-12T01:05:32.387Z,102240.19
2022-10-12T01:08:02.651Z,102238.47
2022-10-12T01:10:30.701Z,102241.19
2022-10-12T01:12:58.860Z,102235.97
2022-10-12T01:15:33.145Z,102238.66
2022-10-12T01:18:10.817Z,102242.28
2022-10-12T01:20:52.236Z,102238.69
2022-10-12T01:23:46.967Z,102237.88
2022-10-12T01:26:35.199Z,102226.41
2022-10-12T01:29:20.319Z,102235.25
2022-10-12T01:31:57.918Z,102224.72
2022-10-12T01:34:33.590Z,102221.19
2022-10-12T01:37:09.368Z,102220.38
2022-10-12T01:39:44.701Z,102217.78
2022-10-12T01:42:18.247Z,102216.00
2022-10-12T01:44:46.181Z,102221.34
2022-10-12T01:47:15.556Z,102217.81
2022-10-12T01:49:43.644Z,102217.00
2022-10-12T01:52:27.901Z,102218.78
2022-10-12T01:55:27.929Z,102213.53
2022-10-12T01:58:11.372Z,102213.53
2022-10-12T02:00:43.759Z,102209.09
2022-10-12T02:03:21.179Z,102212.69
2022-10-12T02:05:56.815Z,102210.94
2022-10-12T02:08:28.970Z,102211.88
2022-10-12T02:11:03.361Z,102202.16
2022-10-12T02:13:36.769Z,102198.66
2022-10-12T02:16:10.310Z,102199.63
2022-10-12T02:18:45.885Z,102201.34
2022-10-12T02:21:17.546Z,102199.56
2022-10-12T02:23:47.549Z,102189.81
2022-10-12T02:26:17.063Z,102189.00
2022-10-12T02:28:46.673Z,102192.50
2022-10-12T02:31:22.802Z,102191.66
2022-10-12T02:33:58.876Z,102188.16
2022-10-12T02:36:36.234Z,102182.84
2022-10-12T02:39:09.390Z,102182.00
2022-10-12T02:41:41.074Z,102178.44
2022-10-12T02:44:12.784Z,102179.38
2022-10-12T02:46:42.316Z,102166.97
2022-10-12T02:49:14.330Z,102169.69
2022-10-12T02:51:44.841Z,102170.56
2022-10-12T02:54:14.037Z,102167.91
2022-10-12T02:56:46.048Z,102165.25
2022-10-12T02:59:14.785Z,102170.59
2022-10-12T03:01:43.593Z,102174.16
2022-10-12T03:04:13.118Z,102162.69
2022-10-12T03:06:42.462Z,102173.31
2022-10-12T03:09:10.681Z,102168.94
2022-10-12T03:11:43.657Z,102166.28
2022-10-12T03:14:12.412Z,102163.63
2022-10-12T03:16:40.486Z,102163.63
2022-10-12T03:19:08.529Z,102165.44
2022-10-12T03:21:37.926Z,102170.75
2022-10-12T03:24:06.126Z,102169.00
2022-10-12T03:26:34.212Z,102160.13
2022-10-12T03:29:02.170Z,102169.88
2022-10-12T03:31:30.177Z,102157.47
2022-10-12T03:33:58.128Z,102156.59
2022-10-12T03:36:26.084Z,102168.09
2022-10-12T03:38:55.439Z,102169.00
2022-10-12T03:41:23.434Z,102165.44
2022-10-12T03:43:51.424Z,102164.56
2022-10-12T03:46:19.396Z,102162.78
2022-10-12T03:48:47.406Z,102165.47
2022-10-12T03:51:15.445Z,102161.91
2022-10-12T03:53:45.597Z,102161.03
2022-10-12T03:56:15.272Z,102168.13
2022-10-12T03:58:43.218Z,102165.47
2022-10-12T04:01:11.246Z,102169.00
2022-10-12T04:03:39.274Z,102172.59
2022-10-12T04:06:07.690Z,102167.25
2022-10-12T04:08:35.651Z,102164.63
2022-10-12T04:11:03.633Z,102175.25
2022-10-12T04:13:32.972Z,102173.50
2022-10-12T04:16:03.377Z,102171.72
2022-10-12T04:18:31.404Z,102174.38
2022-10-12T04:21:00.088Z,102159.31
2022-10-12T04:23:28.158Z,102161.06
2022-10-12T04:25:56.108Z,102148.69
2022-10-12T04:28:24.161Z,102159.31
2022-10-12T04:30:53.514Z,102157.53
2022-10-12T04:33:21.505Z,102156.63
2022-10-12T04:35:49.489Z,102150.44
2022-10-12T04:38:17.625Z,102142.47
2022-10-12T04:40:47.471Z,102146.88
2022-10-12T04:43:15.673Z,102146.00
2022-10-12T04:45:43.873Z,102146.88
2022-10-12T04:48:13.662Z,102143.31
2022-10-12T04:50:41.628Z,102145.09
2022-10-12T04:53:09.617Z,102154.81
2022-10-12T04:55:38.486Z,102134.41
2022-10-12T04:58:06.461Z,102153.94
2022-10-12T05:00:34.452Z,102148.63
2022-10-12T05:03:02.416Z,102148.59
2022-10-12T05:05:31.868Z,102153.88
2022-10-12T05:07:59.822Z,102152.97
2022-10-12T05:10:27.754Z,102154.66
2022-10-12T05:12:55.801Z,102153.75
2022-10-12T05:15:23.790Z,102144.88
2022-10-12T05:17:51.971Z,102154.53
2022-10-12T05:20:19.933Z,102150.13
2022-10-12T05:22:49.329Z,102156.34
2022-10-12T05:25:17.441Z,102159.81
2022-10-12T05:27:45.385Z,102160.66
2022-10-12T05:30:13.767Z,102156.16
2022-10-12T05:32:41.851Z,102156.06
2022-10-12T05:35:10.715Z,102155.06
2022-10-12T05:37:39.257Z,102161.25
2022-10-12T05:40:09.823Z,102149.81
2022-10-12T05:42:38.176Z,102153.28
2022-10-12T05:45:07.406Z,102153.25
2022-10-12T05:47:35.620Z,102147.94
2022-10-12T05:50:03.800Z,102157.66
2022-10-12T05:52:31.755Z,102154.06
2022-10-12T05:54:59.712Z,102149.59
2022-10-12T05:57:29.070Z,102147.75
2022-10-12T05:59:57.026Z,102153.00
2022-10-12T06:02:24.965Z,102147.69
2022-10-12T06:04:53.489Z,102146.75
2022-10-12T06:07:21.526Z,102151.19
2022-10-12T06:09:49.502Z,102157.34
2022-10-12T06:12:17.488Z,102158.28
2022-10-12T06:14:46.865Z,102155.56
2022-10-12T06:17:14.829Z,102150.22
2022-10-12T06:19:42.849Z,102163.38
2022-10-12T06:22:10.794Z,102162.53
2022-10-12T06:24:38.802Z,102149.31
2022-10-12T06:27:07.191Z,102160.81
2022-10-12T06:29:35.883Z,102162.66
2022-10-12T06:32:05.277Z,102161.81
2022-10-12T06:34:33.404Z,102158.31
2022-10-12T06:37:02.186Z,102154.84
2022-10-12T06:39:30.319Z,102156.66
2022-10-12T06:41:58.312Z,102154.06
2022-10-12T06:44:26.275Z,102157.66
2022-10-12T06:46:54.226Z,102155.06
2022-10-12T06:49:23.565Z,102157.72
2022-10-12T06:51:51.506Z,102155.97
2022-10-12T06:54:19.465Z,102159.56
2022-10-12T06:56:47.417Z,102164.03
2022-10-12T06:59:15.567Z,102159.66
2022-10-12T07:01:43.587Z,102136.59
2022-10-12T07:04:11.650Z,102168.63
2022-10-12T07:06:40.950Z,102175.75
2022-10-12T07:09:08.934Z,102173.19
2022-10-12T07:11:37.082Z,102180.31
2022-10-12T07:14:05.037Z,102171.53
2022-10-12T07:16:33.009Z,102171.59
2022-10-12T07:19:01.196Z,102175.19
2022-10-12T07:21:29.133Z,102169.88
2022-10-12T07:23:58.461Z,102175.25
2022-10-12T07:26:26.476Z,102175.25
2022-10-12T07:28:54.494Z,102173.50
2022-10-12T07:31:22.525Z,102179.69
2022-10-12T07:33:50.481Z,102180.59
2022-10-12T07:36:21.726Z,102181.50
2022-10-12T07:38:50.490Z,102178.84
2022-10-12T07:41:20.158Z,102177.94
2022-10-12T07:43:48.128Z,102178.84
2022-10-12T07:46:16.197Z,102178.84
2022-10-12T07:48:49.804Z,102175.28
2022-10-12T07:51:19.003Z,102177.94
2022-10-12T07:53:47.236Z,102171.72
2022-10-12T07:56:18.170Z,102169.06
2022-10-12T07:58:51.202Z,102178.81
2022-10-12T08:01:20.981Z,102174.38
2022-10-12T08:03:49.308Z,102177.91
2022-10-12T08:06:19.929Z,102161.94
2022-10-12T08:08:48.589Z,102182.28
2022-10-12T08:11:17.431Z,102184.94
2022-10-12T08:13:45.731Z,102182.25
2022-10-12T08:16:17.354Z,102183.09
2022-10-12T08:18:45.446Z,102184.88
2022-10-12T08:21:15.382Z,102188.41
2022-10-12T08:23:44.558Z,102182.16
2022-10-12T08:26:13.516Z,102183.88
2022-10-12T08:28:41.570Z,102185.59
2022-10-12T08:31:11.609Z,102173.16
2022-10-12T08:33:41.245Z,102176.66
2022-10-12T08:36:10.084Z,102180.22
2022-10-12T08:38:39.525Z,102180.13
2022-10-12T08:41:20.852Z,102181.88
2022-10-12T08:43:58.728Z,102177.38
2022-10-12T08:46:28.201Z,102176.41
2022-10-12T08:49:01.733Z,102166.59
2022-10-12T08:51:34.352Z,102170.03
2022-10-12T08:54:06.166Z,102163.75
2022-10-12T08:56:35.894Z,102157.47
2022-10-12T08:59:04.511Z,102140.50
2022-10-12T09:01:38.461Z,102153.75
2022-10-12T09:04:15.217Z,102158.94
2022-10-12T09:06:48.858Z,102152.63
2022-10-12T09:09:34.109Z,102158.72
2022-10-12T09:12:15.061Z,102150.66
2022-10-12T09:14:44.474Z,102144.34
2022-10-12T09:17:25.834Z,102138.06
2022-10-12T09:20:03.517Z,102147.72
2022-10-12T09:22:32.489Z,102145.81
2022-10-12T09:25:01.659Z,102142.22
2022-10-12T09:27:32.670Z,102152.91
2022-10-12T09:30:03.581Z,102143.09
2022-10-12T09:32:45.773Z,102142.97
2022-10-12T09:35:16.160Z,102137.50
2022-10-12T09:37:49.433Z,102142.66
2022-10-12T09:40:22.571Z,102143.66
2022-10-12T09:42:51.292Z,102140.94
2022-10-12T09:45:21.444Z,102140.78
2022-10-12T09:48:23.947Z,102137.75
2022-10-12T09:50:57.946Z,102140.41
2022-10-12T09:53:31.576Z,102143.84
2022-10-12T09:56:04.565Z,102139.28
2022-10-12T09:58:40.731Z,102138.19
2022-10-12T10:01:16.415Z,102136.31
2022-10-12T10:03:44.488Z,102136.28
2022-10-12T10:06:15.277Z,102134.53
2022-10-12T10:08:44.920Z,102129.16
2022-10-12T10:11:19.032Z,102143.41
2022-10-12T10:13:52.765Z,102136.13
2022-10-12T10:16:23.363Z,102134.34
2022-10-12T10:18:57.506Z,102127.97
2022-10-12T10:21:30.191Z,102132.44
2022-10-12T10:24:00.572Z,102130.69
2022-10-12T10:26:32.108Z,102127.94
2022-10-12T10:29:18.301Z,102123.31
2022-10-12T10:31:48.144Z,102124.97
2022-10-12T10:34:23.250Z,102116.88
2022-10-12T10:36:55.876Z,102120.22
2022-10-12T10:39:27.426Z,102114.84
2022-10-12T10:41:56.389Z,102117.31
2022-10-12T10:44:30.726Z,102111.78
2022-10-12T10:47:02.080Z,102109.91
2022-10-12T10:49:38.470Z,102113.38
2022-10-12T10:52:09.645Z,102103.53
2022-10-12T10:54:39.166Z,102108.84
2022-10-12T10:57:13.590Z,102106.91
2022-10-12T10:59:48.908Z,102093.31
2022-10-12T11:02:32.845Z,102093.41
2022-10-12T11:05:09.007Z,102082.72
2022-10-12T11:07:42.707Z,102080.81
2022-10-12T11:10:22.444Z,102082.53
2022-10-12T11:12:57.227Z,102058.69
2022-10-12T11:15:32.554Z,102079.91
2022-10-12T11:18:08.905Z,102068.19
2022-10-12T11:20:51.116Z,102056.47
2022-10-12T11:23:28.429Z,102057.94
2022-10-12T11:26:21.697Z,102056.97
2022-10-12T11:28:50.400Z,102053.34
2022-10-12T11:31:25.569Z,102046.44
2022-10-12T11:33:57.643Z,102050.75
2022-10-12T11:36:29.927Z,102045.22
2022-10-12T11:39:07.086Z,102045.00
2022-10-12T11:42:03.288Z,102041.34
2022-10-12T11:44:42.056Z,102040.41
2022-10-12T11:47:17.408Z,102034.06
2022-10-12T11:49:53.313Z,102034.66
2022-10-12T11:52:27.806Z,102028.50
2022-10-12T11:55:08.671Z,102027.69
2022-10-12T11:57:39.033Z,102026.63
2022-10-12T12:00:18.161Z,102022.09
2022-10-12T12:02:53.458Z,102018.47
2022-10-12T12:05:21.967Z,102015.53
2022-10-12T12:07:53.804Z,102007.94
2022-10-12T12:11:03.550Z,102007.88
2022-10-12T12:13:31.963Z,101987.41
2022-10-12T12:16:34.256Z,101995.13
2022-10-12T12:19:41.329Z,101998.81
2022-10-12T12:22:31.482Z,101998.50
2022-10-12T12:25:17.309Z,101996.44
2022-10-12T12:27:50.221Z,101992.44
2022-10-12T12:30:33.945Z,101978.59
2022-10-12T12:33:04.158Z,101977.09
2022-10-12T12:35:36.920Z,101973.78
2022-10-12T12:38:17.097Z,101963.25
2022-10-12T12:40:58.193Z,101973.84
2022-10-12T12:43:56.149Z,101981.84
2022-10-12T12:46:27.301Z,101980.63
2022-10-12T12:49:00.527Z,101966.63
2022-10-12T12:51:38.245Z,101974.91
2022-10-12T12:54:14.218Z,101978.00
2022-10-12T12:56:52.158Z,101979.13
2022-10-12T12:59:47.026Z,101965.63
2022-10-12T13:02:48.062Z,101960.38
2022-10-12T13:05:57.060Z,101959.34
2022-10-12T13:08:37.078Z,101961.00
2022-10-12T13:11:38.146Z,101952.16
2022-10-12T13:14:23.272Z,101947.28
2022-10-12T13:19:55.533Z,101953.34
2022-10-12T13:22:29.011Z,101958.84
2022-10-12T13:25:02.701Z,101942.66
2022-10-12T13:27:35.663Z,101942.59
2022-10-12T13:30:09.324Z,101947.72
2022-10-12T13:32:46.957Z,101941.44
2022-10-12T13:35:19.605Z,101941.03
2022-10-12T13:38:01.233Z,101935.69
2022-10-12T13:40:30.564Z,101937.84
2022-10-12T13:42:58.662Z,101934.25
2022-10-12T13:45:26.676Z,101935.03
2022-10-12T13:48:05.779Z,101929.84
2022-10-12T13:50:33.801Z,101918.22
2022-10-12T13:53:01.750Z,101919.78
2022-10-12T13:55:31.252Z,101924.78
2022-10-12T13:57:59.240Z,101917.75
2022-10-12T14:00:27.652Z,101911.09
2022-10-12T14:02:58.173Z,101910.28
2022-10-12T14:05:29.491Z,101904.50
2022-10-12T14:07:59.995Z,101899.16
2022-10-12T14:10:31.217Z,101886.88
2022-10-12T14:13:01.472Z,101888.44
2022-10-12T14:15:35.802Z,101893.38
2022-10-12T14:18:05.682Z,101902.91
2022-10-12T14:20:37.399Z,101894.94
2022-10-12T14:23:11.675Z,101888.78
2022-10-12T14:25:50.998Z,101885.56
2022-10-12T14:28:28.749Z,101880.16
2022-10-12T14:30:57.161Z,101878.59
2022-10-12T14:33:27.718Z,101880.34
2022-10-12T14:36:13.116Z,101879.88
2022-10-12T14:38:43.296Z,101869.22
2022-10-12T14:41:34.567Z,101870.22
2022-10-12T14:44:11.344Z,101866.22
2022-10-12T14:46:41.618Z,101862.09
2022-10-12T14:49:18.652Z,101864.16
2022-10-12T14:51:47.357Z,101852.03
2022-10-12T14:54:15.333Z,101855.09
2022-10-12T14:56:43.297Z,101854.94
2022-10-12T14:59:11.263Z,101849.66
2022-10-12T15:01:41.773Z,101852.63
2022-10-12T15:04:10.886Z,101850.28
2022-10-12T15:06:40.834Z,101848.59
2022-10-12T15:09:08.845Z,101846.84
2022-10-12T15:11:37.030Z,101838.16
2022-10-12T15:14:05.018Z,101835.91
2022-10-12T15:16:34.830Z,101836.28
2022-10-12T15:19:02.817Z,101836.56
2022-10-12T15:21:30.810Z,101828.00
2022-10-12T15:24:00.139Z,101827.25
2022-10-12T15:26:28.297Z,101828.22
2022-10-12T15:28:56.399Z,101822.84
2022-10-12T15:31:24.417Z,101820.38
2022-10-12T15:33:52.367Z,101816.16
2022-10-12T15:36:20.382Z,101811.94
2022-10-12T15:38:48.369Z,101810.25
2022-10-12T15:41:19.549Z,101807.00
2022-10-12T15:43:47.616Z,101806.47
2022-10-12T15:46:15.630Z,101800.41
2022-10-12T15:48:43.938Z,101805.38
2022-10-12T15:51:18.196Z,101796.94
2022-10-12T15:53:46.608Z,101798.25
2022-10-12T15:56:15.992Z,101782.81
2022-10-12T15:58:45.827Z,101796.31
2022-10-12T16:01:15.224Z,101797.50
2022-10-12T16:03:43.834Z,101791.53
2022-10-12T16:06:11.891Z,101787.41
2022-10-12T16:08:39.998Z,101796.56
2022-10-12T16:11:10.034Z,101789.75
2022-10-12T16:13:42.993Z,101789.31
2022-10-12T16:16:17.143Z,101783.44
2022-10-12T16:18:45.818Z,101774.13
2022-10-12T16:21:13.843Z,101796.44
2022-10-12T16:23:42.410Z,101800.97
2022-10-12T16:26:14.416Z,101777.25
2022-10-12T16:28:43.163Z,101795.88
2022-10-12T16:31:12.415Z,101788.97
2022-10-12T16:33:42.049Z,101793.63
2022-10-12T16:36:11.797Z,101792.97
2022-10-12T16:38:39.947Z,101791.31
2022-10-12T16:41:12.389Z,101792.34
2022-10-12T16:43:40.746Z,101794.28
2022-10-12T16:46:09.520Z,101803.31
2022-10-12T16:48:38.222Z,101800.75
2022-10-12T16:51:10.206Z,101801.75
2022-10-12T16:53:38.220Z,101800.06
2022-10-12T16:56:06.537Z,101801.13
2022-10-12T16:58:34.572Z,101796.72
2022-10-12T17:01:09.688Z,101806.69
2022-10-12T17:03:37.688Z,101801.41
2022-10-12T17:06:05.880Z,101800.63
2022-10-12T17:08:38.773Z,101792.88
2022-10-12T17:11:08.516Z,101805.25
2022-10-12T17:13:37.573Z,101804.53
2022-10-12T17:16:26.401Z,101802.84
2022-10-12T17:18:59.262Z,101798.50
2022-10-12T17:21:27.887Z,101800.34
2022-10-12T17:23:58.909Z,101803.09
2022-10-12T17:26:27.263Z,101809.34
2022-10-12T17:28:55.561Z,101808.47
2022-10-12T17:31:23.743Z,101812.00
2022-10-12T17:33:51.745Z,101795.28
2022-10-12T17:36:20.876Z,101790.13
2022-10-12T17:38:51.477Z,101777.88
2022-10-12T17:41:20.790Z,101797.31
2022-10-12T17:43:48.873Z,101798.19
2022-10-12T17:46:21.536Z,101791.97
2022-10-12T17:48:50.448Z,101795.59
2022-10-12T17:51:18.450Z,101795.72
2022-10-12T17:53:46.448Z,101796.69
2022-10-12T17:56:16.070Z,101795.78
2022-10-12T17:58:45.567Z,101793.09
2022-10-12T18:01:16.243Z,101796.63
2022-10-12T18:03:46.798Z,101799.31
2022-10-12T18:06:17.041Z,101798.47
2022-10-12T18:08:45.303Z,101795.81
2022-10-12T18:11:13.914Z,101798.47
2022-10-12T18:13:48.344Z,101801.97
2022-10-12T18:16:18.684Z,101802.91
2022-10-12T18:18:50.542Z,101799.38
2022-10-12T18:21:20.309Z,101796.78
2022-10-12T18:23:48.299Z,101793.25
2022-10-12T18:26:19.804Z,101797.72
2022-10-12T18:28:49.842Z,101789.72
2022-10-12T18:31:19.485Z,101785.28
2022-10-12T18:33:47.692Z,101792.38
2022-10-12T18:36:17.014Z,101789.72
2022-10-12T18:38:45.198Z,101789.72
2022-10-12T18:41:15.431Z,101790.66
2022-10-12T18:43:43.536Z,101794.22
2022-10-12T18:46:14.669Z,101801.31
2022-10-12T18:48:42.675Z,101779.22
2022-10-12T18:51:17.092Z,101789.88
2022-10-12T18:53:45.037Z,101779.28
2022-10-12T18:56:13.876Z,101789.03
2022-10-12T18:58:42.067Z,101781.00
2022-10-12T19:01:13.089Z,101781.94
2022-10-12T19:03:41.358Z,101743.03
2022-10-12T19:06:12.436Z,101775.75
2022-10-12T19:08:40.575Z,101781.06
2022-10-12T19:11:09.778Z,101779.28
2022-10-12T19:13:38.582Z,101779.28
2022-10-12T19:16:08.545Z,101777.53
2022-10-12T19:18:38.301Z,101782.84
2022-10-12T19:21:08.017Z,101777.56
2022-10-12T19:23:36.176Z,101776.69
2022-10-12T19:26:06.032Z,101769.59
2022-10-12T19:28:34.744Z,101771.41
2022-10-12T19:31:03.584Z,101758.13
2022-10-12T19:33:31.566Z,101768.75
2022-10-12T19:36:03.169Z,101762.56
2022-10-12T19:38:31.160Z,101765.22
2022-10-12T19:40:59.357Z,101760.81
2022-10-12T19:43:27.506Z,101764.31
2022-10-12T19:45:55.708Z,101751.97
2022-10-12T19:48:23.684Z,101766.97
2022-10-12T19:51:00.262Z,101764.31
2022-10-12T19:53:28.385Z,101758.16
2022-10-12T19:56:00.580Z,101754.59
2022-10-12T19:58:28.997Z,101748.44
2022-10-12T20:01:02.291Z,101742.22
2022-10-12T20:03:30.770Z,101739.56
2022-10-12T20:06:01.102Z,101745.75
2022-10-12T20:08:29.122Z,101751.03
2022-10-12T20:10:57.055Z,101745.72
2022-10-12T20:13:25.382Z,101737.75
2022-10-12T20:15:53.925Z,101743.06
2022-10-12T20:18:22.958Z,101748.38
2022-10-12T20:20:51.467Z,101744.84
2022-10-12T20:23:21.505Z,101743.09
2022-10-12T20:25:51.697Z,101724.53
2022-10-12T20:28:20.549Z,101730.69
2022-10-12T20:30:49.394Z,101735.13
2022-10-12T20:33:17.585Z,101733.34
2022-10-12T20:35:49.526Z,101726.28
2022-10-12T20:38:18.299Z,101716.56
2022-10-12T20:40:47.994Z,101720.06
2022-10-12T20:43:16.967Z,101715.69
2022-10-12T20:45:44.919Z,101722.75
2022-10-12T20:48:12.831Z,101711.25
2022-10-12T20:50:40.744Z,101716.53
2022-10-12T20:53:08.758Z,101715.66
2022-10-12T20:55:39.712Z,101712.16
2022-10-12T20:58:09.788Z,101718.31
2022-10-12T21:00:37.784Z,101712.13
2022-10-12T21:03:05.757Z,101707.72
2022-10-12T21:05:35.826Z,101713.03
2022-10-12T21:08:03.961Z,101707.72
2022-10-12T21:10:31.967Z,101705.06
2022-10-12T21:13:00.066Z,101710.34
2022-10-12T21:15:29.425Z,101709.50
2022-10-12T21:17:57.500Z,101708.59
2022-10-12T21:20:25.453Z,101700.63
2022-10-12T21:22:53.389Z,101705.06
2022-10-12T21:25:21.405Z,101696.19
2022-10-12T21:27:49.345Z,101693.53
2022-10-12T21:30:17.515Z,101684.72
2022-10-12T21:32:46.843Z,101690.03
2022-10-12T21:35:14.849Z,101684.72
2022-10-12T21:37:42.795Z,101686.50
2022-10-12T21:40:11.575Z,101690.91
2022-10-12T21:42:39.501Z,101692.69
2022-10-12T21:45:08.169Z,101690.91
2022-10-12T21:47:36.095Z,101684.69
2022-10-12T21:50:09.111Z,101692.66
2022-10-12T21:52:37.457Z,101697.09
2022-10-12T21:55:05.924Z,101688.25
2022-10-12T21:57:33.923Z,101662.63
2022-10-12T22:00:01.917Z,101684.72
2022-10-12T22:02:29.847Z,101686.47
2022-10-12T22:04:57.827Z,101680.28
2022-10-12T22:07:27.160Z,101677.66
2022-10-12T22:09:55.133Z,101687.34
2022-10-12T22:12:23.107Z,101678.50
2022-10-12T22:14:51.022Z,101678.50
2022-10-12T22:17:19.039Z,101673.22
2022-10-12T22:19:47.061Z,101672.34
2022-10-12T22:22:15.172Z,101670.56
2022-10-12T22:24:44.615Z,101659.94
2022-10-12T22:27:12.566Z,101667.03
2022-10-12T22:29:40.541Z,101666.16
2022-10-12T22:32:08.448Z,101664.38
2022-10-12T22:34:36.457Z,101669.69
2022-10-12T22:37:04.479Z,101665.28
2022-10-12T22:39:32.399Z,101662.59
2022-10-12T22:42:01.711Z,101662.59
2022-10-12T22:44:29.665Z,101652.88
2022-10-12T22:46:57.624Z,101654.66
2022-10-12T22:49:25.561Z,101654.66
2022-10-12T22:51:53.556Z,101647.53
2022-10-12T22:54:21.529Z,101637.84
2022-10-12T22:56:51.245Z,101644.00
2022-10-12T22:59:20.849Z,101643.09
2022-10-12T23:01:48.802Z,101642.19
2022-10-12T23:04:16.946Z,101635.09
2022-10-12T23:06:44.914Z,101631.50
2022-10-12T23:09:12.855Z,101630.59
2022-10-12T23:11:40.812Z,101630.59
2022-10-12T23:14:12.303Z,101619.06
2022-10-12T23:16:41.762Z,101616.41
2022-10-12T23:19:11.417Z,101612.84
2022-10-12T23:21:39.390Z,101609.28
2022-10-12T23:24:07.800Z,101619.88
2022-10-12T23:26:35.984Z,101619.84
2022-10-12T23:29:04.593Z,101602.09
2022-10-12T23:31:35.542Z,101607.41
2022-10-12T23:34:07.062Z,101600.31
2022-10-12T23:36:35.545Z,101599.38
2022-10-12T23:39:05.498Z,101597.63
2022-10-12T23:41:33.923Z,101598.44
2022-10-12T23:44:01.965Z,101601.09
2022-10-12T23:46:30.596Z,101593.13
2022-10-12T23:48:58.809Z,101597.53
2022-10-12T23:51:28.476Z,101594.00
2022-10-12T23:53:56.437Z,101597.56
2022-10-12T23:56:24.414Z,101604.66
2022-10-12T23:58:52.405Z,101598.41
